Time;durP1;ratioP1;P1;durP2;ratioP2;P2;SDS_P1;SDS_P2;PMS_P1;PMS_P2;Temp;Humidity;BMP_temperature;BMP_pressure;BME280_temperature;BME280_humidity;BME280_pressure;Samples;Min_cycle;Max_cycle;Signal;HPM_P1;HPM_P2
2022/03/30 00:01:06;;;;;;;56.50;20.50;;;;;;;6.32;83.59;101046.41;5093492;28;20040;-76
2022/03/30 00:03:36;;;;;;;60.08;22.25;;;;;;;6.34;83.87;101038.63;5093887;28;20405;-76
2022/03/30 00:06:05;;;;;;;56.60;19.90;;;;;;;6.34;83.65;101043.84;5093747;28;20056;-75
2022/03/30 00:08:33;;;;;;;54.60;19.08;;;;;;;6.28;83.78;101038.44;5093470;28;20126;-76
2022/03/30 00:11:02;;;;;;;55.30;19.67;;;;;;;6.31;83.63;101035.94;5093719;28;20060;-77
2022/03/30 00:13:30;;;;;;;58.33;20.30;;;;;;;6.21;84.08;101037.38;5093603;28;20048;-76
2022/03/30 00:15:58;;;;;;;58.45;19.38;;;;;;;6.20;84.36;101033.00;5093560;28;20036;-75
2022/03/30 00:18:26;;;;;;;56.13;19.83;;;;;;;6.15;84.33;101037.16;5093460;28;20044;-76
2022/03/30 00:20:54;;;;;;;60.92;21.25;;;;;;;6.15;84.24;101037.16;5093668;28;20067;-75
2022/03/30 00:23:22;;;;;;;49.33;18.52;;;;;;;6.10;83.89;101034.41;5093124;28;20085;-76
2022/03/30 00:25:50;;;;;;;52.97;18.67;;;;;;;6.05;84.10;101038.56;5093788;28;20044;-77
2022/03/30 00:28:19;;;;;;;57.78;19.38;;;;;;;6.02;84.34;101041.06;5092950;28;20084;-76
2022/03/30 00:30:47;;;;;;;51.55;18.83;;;;;;;5.98;84.22;101036.56;5092993;28;20086;-76
2022/03/30 00:33:15;;;;;;;52.53;19.23;;;;;;;5.98;84.22;101039.19;5093942;28;20086;-73
2022/03/30 00:35:43;;;;;;;58.42;18.50;;;;;;;5.94;84.70;101041.63;5092737;28;20082;-77
2022/03/30 00:38:10;;;;;;;50.35;18.50;;;;;;;5.96;84.79;101040.84;5093270;28;20055;-76
2022/03/30 00:40:39;;;;;;;49.53;18.23;;;;;;;5.98;84.48;101039.19;5093322;28;20435;-76
2022/03/30 00:43:07;;;;;;;47.83;18.02;;;;;;;5.93;84.45;101038.13;5093340;28;20067;-73
2022/03/30 00:45:37;;;;;;;51.30;19.05;;;;;;;5.85;84.83;101031.75;5093090;28;20052;-74
2022/03/30 00:48:06;;;;;;;52.40;18.42;;;;;;;5.81;85.23;101024.66;5093137;28;20052;-75
2022/03/30 00:50:34;;;;;;;53.72;18.83;;;;;;;5.81;85.03;101035.06;5093299;28;20055;-73
2022/03/30 00:53:02;;;;;;;43.35;17.85;;;;;;;5.80;85.05;101023.78;5092608;28;20058;-73
2022/03/30 00:55:31;;;;;;;56.20;18.80;;;;;;;5.78;85.05;101032.34;5092091;28;20055;-76
2022/03/30 00:57:59;;;;;;;50.90;17.80;;;;;;;5.74;84.97;101028.75;5093159;28;20071;-76
2022/03/30 01:00:27;;;;;;;50.25;17.50;;;;;;;5.69;85.43;101024.22;5092848;28;20131;-73
2022/03/30 01:02:57;;;;;;;48.75;16.50;;;;;;;5.68;85.03;101027.66;5092711;28;20070;-73
2022/03/30 01:05:25;;;;;;;53.10;19.10;;;;;;;5.73;84.81;101015.69;5092476;28;20467;-74
2022/03/30 01:07:57;;;;;;;39.25;16.00;;;;;;;5.67;84.98;101010.25;5092908;28;20086;-72
2022/03/30 01:10:26;;;;;;;58.17;18.55;;;;;;;5.57;85.25;101009.94;5092664;28;20052;-76
2022/03/30 01:12:55;;;;;;;42.03;16.85;;;;;;;5.58;84.79;101011.72;5092695;28;20071;-75
2022/03/30 01:15:23;;;;;;;46.15;17.38;;;;;;;5.52;84.76;101008.88;5092499;28;20048;-75
2022/03/30 01:17:51;;;;;;;46.40;17.52;;;;;;;5.55;84.90;101006.41;5092690;28;20054;-75
2022/03/30 01:20:22;;;;;;;52.70;16.55;;;;;;;5.46;85.31;101006.06;5092410;28;20051;-73
2022/03/30 01:22:52;;;;;;;48.13;16.73;;;;;;;5.44;85.05;101002.53;5092480;28;20043;-73
2022/03/30 01:25:20;;;;;;;51.30;17.40;;;;;;;5.45;84.95;100996.50;5092457;28;20085;-73
2022/03/30 01:27:48;;;;;;;44.85;16.75;;;;;;;5.38;84.86;100998.81;5092174;28;20044;-73
2022/03/30 01:33:12;;;;;;;39.88;15.70;;;;;;;5.32;85.13;100989.06;5092179;28;20054;-73
2022/03/30 01:35:43;;;;;;;43.92;16.30;;;;;;;5.24;85.45;100988.78;5092369;28;20167;-74
2022/03/30 01:38:12;;;;;;;46.17;16.38;;;;;;;5.34;84.83;100990.00;5092397;28;20055;-74
2022/03/30 01:40:42;;;;;;;43.65;15.93;;;;;;;5.20;85.21;100993.84;5092361;28;20048;-74
2022/03/30 01:43:10;;;;;;;43.08;16.00;;;;;;;5.14;85.45;100991.91;5092561;28;20044;-73
2022/03/30 01:45:39;;;;;;;39.00;15.07;;;;;;;5.09;85.63;100988.25;5074224;28;20052;-74
2022/03/30 01:48:07;;;;;;;47.78;17.05;;;;;;;5.07;86.15;100989.00;5092089;28;20161;-74
2022/03/30 01:50:36;;;;;;;51.72;18.30;;;;;;;5.10;85.87;100990.03;5092555;28;20484;-77
2022/03/30 01:53:05;;;;;;;38.63;14.73;;;;;;;5.00;86.40;100989.63;5092347;28;20052;-76
2022/03/30 01:55:34;;;;;;;37.42;16.23;;;;;;;4.90;86.75;100988.38;5092380;28;20058;-76
2022/03/30 01:58:02;;;;;;;49.63;16.38;;;;;;;4.88;86.85;100983.13;5091958;28;20089;-76
2022/03/30 02:00:30;;;;;;;38.65;16.33;;;;;;;4.85;86.90;100976.91;5092038;28;20055;-75
2022/03/30 02:02:58;;;;;;;46.38;15.70;;;;;;;4.85;86.91;100988.19;5092322;28;20056;-76
2022/03/30 02:05:28;;;;;;;46.00;16.35;;;;;;;4.81;87.25;100986.31;5093468;28;20055;-76
2022/03/30 02:07:56;;;;;;;43.75;16.10;;;;;;;4.75;87.00;100969.59;5096500;28;20068;-76
2022/03/30 02:10:25;;;;;;;44.03;16.25;;;;;;;4.66;87.66;100970.13;5096692;28;20089;-75
2022/03/30 02:12:55;;;;;;;45.70;16.17;;;;;;;4.66;87.65;100977.03;5096223;28;20059;-74
2022/03/30 02:15:23;;;;;;;45.63;17.55;;;;;;;4.57;88.20;100980.16;5096123;28;20093;-73
2022/03/30 02:17:52;;;;;;;44.03;15.95;;;;;;;4.52;87.91;100971.28;5095925;28;20047;-72
2022/03/30 02:20:20;;;;;;;39.70;15.48;;;;;;;4.44;88.70;100967.50;5095944;28;20044;-73
2022/03/30 02:22:48;;;;;;;39.42;16.30;;;;;;;4.46;88.76;100971.94;5095817;28;20075;-72
2022/03/30 02:25:15;;;;;;;43.05;16.92;;;;;;;4.35;89.55;100962.84;5095684;28;20130;-72
2022/03/30 02:27:44;;;;;;;47.53;15.50;;;;;;;4.35;89.49;100959.34;5095505;28;20059;-74
2022/03/30 02:30:14;;;;;;;46.38;16.35;;;;;;;4.35;89.14;100961.94;5095469;28;20044;-75
2022/03/30 02:32:44;;;;;;;43.47;16.75;;;;;;;4.35;89.34;100956.75;5095202;28;20079;-74
2022/03/30 02:35:14;;;;;;;39.58;16.30;;;;;;;4.36;88.88;100950.72;5095602;28;20075;-75
2022/03/30 02:37:43;;;;;;;44.10;16.77;;;;;;;4.31;88.80;100954.84;5096656;28;20360;-74
2022/03/30 02:40:12;;;;;;;43.78;16.77;;;;;;;4.32;89.29;100941.06;5095733;28;20044;-78
2022/03/30 02:42:40;;;;;;;37.30;15.13;;;;;;;4.27;89.02;100941.75;5095196;28;20056;-75
2022/03/30 02:45:09;;;;;;;44.70;15.25;;;;;;;4.28;89.07;100946.13;5095282;28;20070;-76
2022/03/30 02:50:24;;;;;;;40.90;16.33;;;;;;;4.25;89.07;100933.00;5095251;28;20048;-76
2022/03/30 02:52:52;;;;;;;41.47;15.00;;;;;;;4.25;88.98;100930.41;5094873;28;20432;-74
2022/03/30 02:55:20;;;;;;;38.47;15.05;;;;;;;4.25;88.97;100934.72;5095363;28;20115;-75
2022/03/30 02:57:48;;;;;;;39.40;15.25;;;;;;;4.17;89.29;100929.22;5094919;28;20412;-76
2022/03/30 03:00:17;;;;;;;42.95;15.70;;;;;;;4.12;89.46;100924.72;5094796;28;20044;-75
2022/03/30 03:02:46;;;;;;;42.63;14.98;;;;;;;4.14;89.24;100930.84;5094889;28;20055;-77
2022/03/30 03:05:13;;;;;;;38.80;15.02;;;;;;;4.06;89.50;100917.56;5094796;28;20056;-74
2022/03/30 03:07:42;;;;;;;41.17;15.98;;;;;;;4.05;90.10;100915.78;5094629;28;20515;-76
2022/03/30 03:10:10;;;;;;;44.47;16.08;;;;;;;4.00;89.99;100912.13;5094583;28;20092;-77
2022/03/30 03:12:38;;;;;;;39.97;16.50;;;;;;;4.03;89.81;100922.63;5094996;28;20508;-77
2022/03/30 03:15:07;;;;;;;38.45;13.73;;;;;;;4.05;89.67;100927.88;5094963;28;20093;-75
2022/03/30 03:17:34;;;;;;;43.25;13.93;;;;;;;4.02;89.89;100920.84;5093481;28;20052;-74
2022/03/30 03:20:05;;;;;;;42.38;14.68;;;;;;;4.06;89.95;100927.06;5094588;28;20044;-76
2022/03/30 03:22:33;;;;;;;39.35;14.85;;;;;;;4.05;89.62;100920.97;5094503;28;20126;-76
2022/03/30 03:25:08;;;;;;;38.58;15.75;;;;;;;4.01;89.71;100923.38;5094370;28;20044;-77
2022/03/30 03:27:36;;;;;;;35.70;14.43;;;;;;;3.95;89.68;100918.84;5094443;28;20052;-78
2022/03/30 03:30:07;;;;;;;41.38;15.68;;;;;;;3.92;89.71;100926.50;5094425;28;20052;-77
2022/03/30 03:32:35;;;;;;;40.85;16.08;;;;;;;3.86;89.64;100928.81;5094657;28;20060;-73
2022/03/30 03:35:05;;;;;;;42.83;16.80;;;;;;;3.83;89.39;100923.50;5094251;28;20130;-73
2022/03/30 03:37:33;;;;;;;36.00;15.50;;;;;;;3.81;89.66;100922.56;5093929;28;20064;-74
2022/03/30 03:40:01;;;;;;;42.25;14.30;;;;;;;3.76;90.31;100926.66;5094282;28;20113;-73
2022/03/30 03:42:29;;;;;;;37.17;15.90;;;;;;;3.71;89.80;100923.88;5094323;28;20063;-73
2022/03/30 03:44:57;;;;;;;34.85;14.15;;;;;;;3.70;90.18;100921.22;5094286;28;20044;-77
2022/03/30 03:47:25;;;;;;;41.90;15.10;;;;;;;3.67;90.53;100915.91;5094038;28;20463;-74
2022/03/30 03:49:53;;;;;;;35.58;16.30;;;;;;;3.65;90.82;100920.16;5094304;28;20048;-75
2022/03/30 03:52:23;;;;;;;40.05;16.02;;;;;;;3.70;90.36;100913.44;5094018;28;20199;-73
2022/03/30 03:54:51;;;;;;;36.95;14.05;;;;;;;3.72;91.11;100911.81;5093387;28;20050;-74
2022/03/30 03:57:19;;;;;;;49.03;17.25;;;;;;;3.77;90.79;100912.88;5093905;28;20466;-74
2022/03/30 03:59:46;;;;;;;38.83;15.32;;;;;;;3.78;91.05;100915.53;5093609;28;20063;-73
2022/03/30 04:02:14;;;;;;;40.58;14.65;;;;;;;3.78;90.98;100906.88;5093630;28;20086;-73
2022/03/30 04:04:44;;;;;;;47.67;16.00;;;;;;;3.80;90.83;100903.50;5093361;28;20054;-74
2022/03/30 04:07:13;;;;;;;42.75;15.98;;;;;;;3.81;91.03;100904.41;5093767;28;20076;-73
2022/03/30 04:09:42;;;;;;;41.22;15.88;;;;;;;3.80;91.33;100902.63;5093529;28;20135;-74
2022/03/30 04:12:15;;;;;;;41.83;14.73;;;;;;;3.82;91.19;100893.19;5093550;28;20142;-74
2022/03/30 04:14:43;;;;;;;45.22;15.55;;;;;;;3.82;91.38;100888.00;5093876;28;20385;-73
2022/03/30 04:17:11;;;;;;;32.22;14.77;;;;;;;3.80;91.13;100892.25;5094074;28;20051;-77
2022/03/30 04:19:40;;;;;;;50.72;17.13;;;;;;;3.73;91.50;100891.13;5093861;28;20088;-77
2022/03/30 04:22:08;;;;;;;37.20;15.20;;;;;;;3.73;91.20;100887.63;5093668;28;20055;-77
2022/03/30 04:24:36;;;;;;;43.03;17.10;;;;;;;3.68;90.98;100891.75;5093893;28;20071;-73
2022/03/30 04:27:06;;;;;;;46.33;16.15;;;;;;;3.69;91.21;100888.34;5093461;28;20052;-73
2022/03/30 04:29:34;;;;;;;42.97;15.13;;;;;;;3.65;91.27;100886.44;5093409;28;20050;-74
2022/03/30 04:32:03;;;;;;;32.80;15.10;;;;;;;3.63;90.92;100885.47;5093079;28;20058;-73
2022/03/30 04:34:31;;;;;;;38.42;15.32;;;;;;;3.55;91.56;100883.44;5093020;28;20143;-73
2022/03/30 04:36:59;;;;;;;36.03;14.77;;;;;;;3.54;91.19;100873.00;5093357;28;20076;-73
2022/03/30 04:39:27;;;;;;;41.13;15.75;;;;;;;3.51;91.19;100878.97;5092839;28;20551;-77
2022/03/30 04:41:55;;;;;;;33.10;14.60;;;;;;;3.48;91.57;100876.25;5093493;28;20089;-74
2022/03/30 04:44:26;;;;;;;33.13;13.73;;;;;;;3.44;91.31;100874.34;5093349;28;20052;-78
2022/03/30 04:46:56;;;;;;;44.35;16.60;;;;;;;3.42;91.26;100877.69;5093645;28;20044;-73
2022/03/30 04:49:24;;;;;;;41.10;14.93;;;;;;;3.38;91.55;100871.47;5092776;28;20048;-76
2022/03/30 04:51:51;;;;;;;39.88;15.93;;;;;;;3.37;91.50;100874.91;5093623;28;20097;-79
2022/03/30 04:54:20;;;;;;;42.97;15.45;;;;;;;3.34;92.21;100872.19;5093185;28;20036;-78
2022/03/30 04:56:50;;;;;;;38.92;15.20;;;;;;;3.32;91.92;100871.22;5092987;28;20603;-77
2022/03/30 04:59:19;;;;;;;41.15;14.57;;;;;;;3.29;92.05;100871.09;5092781;28;20123;-73
2022/03/30 05:01:49;;;;;;;37.17;13.48;;;;;;;3.28;92.65;100871.91;5093846;28;20044;-76
2022/03/30 05:04:17;;;;;;;36.80;15.13;;;;;;;3.26;92.37;100878.72;5093024;28;20127;-77
2022/03/30 05:06:45;;;;;;;42.70;15.38;;;;;;;3.22;92.69;100874.25;5093421;28;20048;-76
2022/03/30 05:09:12;;;;;;;41.55;15.80;;;;;;;3.20;92.64;100873.28;5093263;28;20052;-77
2022/03/30 05:11:42;;;;;;;44.83;16.30;;;;;;;3.17;93.08;100871.44;5092763;28;20052;-73
2022/03/30 05:14:10;;;;;;;41.05;16.58;;;;;;;3.18;93.13;100867.16;5092898;28;20055;-73
2022/03/30 05:16:38;;;;;;;38.17;13.93;;;;;;;3.16;93.23;100863.59;5092667;28;20071;-76
2022/03/30 05:19:09;;;;;;;45.03;16.40;;;;;;;3.15;93.34;100865.31;5092858;28;20093;-77
2022/03/30 05:21:37;;;;;;;40.35;15.80;;;;;;;3.17;93.49;100857.59;5092715;28;20521;-77
2022/03/30 05:24:06;;;;;;;44.47;16.42;;;;;;;3.12;93.41;100872.94;5092374;28;20099;-78
2022/03/30 05:26:35;;;;;;;39.45;17.48;;;;;;;3.08;93.55;100868.50;5092789;28;20105;-77
2022/03/30 05:29:03;;;;;;;43.10;16.92;;;;;;;3.08;93.47;100859.84;5092567;28;20083;-77
2022/03/30 05:31:31;;;;;;;40.92;15.13;;;;;;;3.07;93.53;100863.25;5092758;28;20048;-79
2022/03/30 05:33:59;;;;;;;39.35;15.52;;;;;;;3.04;93.84;100869.19;5092957;28;20047;-74
2022/03/30 05:36:28;;;;;;;43.83;15.23;;;;;;;3.03;93.82;100862.22;5093383;28;20461;-77
2022/03/30 05:38:56;;;;;;;38.92;15.15;;;;;;;3.04;93.37;100869.19;5093077;28;20386;-77
2022/03/30 05:41:25;;;;;;;52.15;16.60;;;;;;;3.04;93.80;100868.28;5092692;28;20054;-73
2022/03/30 05:43:52;;;;;;;41.58;14.48;;;;;;;3.07;93.46;100871.00;5093192;28;20044;-76
2022/03/30 05:46:21;;;;;;;43.67;14.52;;;;;;;3.06;93.77;100861.47;5092889;28;20444;-76
2022/03/30 05:48:51;;;;;;;45.63;16.95;;;;;;;3.06;93.49;100857.16;5093428;28;20044;-76
2022/03/30 05:51:19;;;;;;;37.22;15.52;;;;;;;3.07;93.88;100852.88;5093200;28;20072;-76
2022/03/30 05:53:49;;;;;;;44.90;14.98;;;;;;;3.06;94.22;100845.94;5092004;28;20479;-75
2022/03/30 05:56:17;;;;;;;41.05;15.40;;;;;;;3.08;93.95;100850.34;5093158;28;20139;-76
2022/03/30 05:58:44;;;;;;;41.28;15.63;;;;;;;3.14;93.66;100852.28;5093263;28;20507;-74
2022/03/30 06:01:12;;;;;;;48.45;15.02;;;;;;;3.18;93.87;100852.50;5092544;28;20052;-73
2022/03/30 06:03:40;;;;;;;46.33;16.83;;;;;;;3.26;93.40;100858.88;5092540;28;20123;-75
2022/03/30 06:06:14;;;;;;;43.40;15.65;;;;;;;3.31;93.20;100863.38;5092384;28;20475;-74
2022/03/30 06:08:42;;;;;;;40.63;16.73;;;;;;;3.37;93.42;100869.72;5092994;28;20098;-73
2022/03/30 06:11:11;;;;;;;41.08;14.98;;;;;;;3.41;93.30;100858.66;5092771;28;20141;-77
2022/03/30 06:13:39;;;;;;;48.88;16.15;;;;;;;3.48;92.76;100858.09;5092462;28;20048;-76
2022/03/30 06:16:08;;;;;;;43.03;15.20;;;;;;;3.55;92.70;100870.50;5093203;28;20078;-77
2022/03/30 06:18:36;;;;;;;42.53;16.27;;;;;;;3.68;92.34;100871.00;5092779;28;20044;-75
2022/03/30 06:21:04;;;;;;;33.55;15.02;;;;;;;3.75;92.48;100871.31;5092610;28;20055;-76
2022/03/30 06:23:32;;;;;;;38.22;15.65;;;;;;;3.81;92.08;100868.09;5092461;28;20052;-73
2022/03/30 06:26:01;;;;;;;41.90;17.05;;;;;;;3.84;92.18;100873.41;5092106;28;20056;-73
2022/03/30 06:28:30;;;;;;;45.55;15.25;;;;;;;3.88;92.10;100870.09;5092006;28;20098;-73
2022/03/30 06:30:58;;;;;;;45.42;17.48;;;;;;;3.92;91.47;100869.41;5091871;28;20471;-76
2022/03/30 06:33:26;;;;;;;44.13;16.77;;;;;;;3.86;91.40;100864.84;5091716;28;20079;-76
2022/03/30 06:35:56;;;;;;;42.50;16.15;;;;;;;3.90;91.83;100864.16;5091572;28;20127;-76
2022/03/30 06:38:24;;;;;;;41.38;15.35;;;;;;;4.01;91.56;100868.88;5091789;28;20135;-77
2022/03/30 06:40:53;;;;;;;39.15;15.48;;;;;;;4.11;91.40;100869.31;5091903;28;20044;-76
2022/03/30 06:43:22;;;;;;;44.42;16.42;;;;;;;4.26;90.93;100859.50;5092004;28;20083;-76
2022/03/30 06:45:51;;;;;;;42.05;15.90;;;;;;;4.44;90.81;100861.91;5091407;28;20036;-74
2022/03/30 06:48:22;;;;;;;40.28;16.10;;;;;;;4.56;90.68;100864.09;5091519;28;20044;-75
2022/03/30 06:50:50;;;;;;;47.30;16.40;;;;;;;4.69;89.80;100855.94;5091411;28;20040;-77
2022/03/30 06:53:19;;;;;;;40.60;15.80;;;;;;;4.70;89.18;100856.81;5093477;28;20047;-76
2022/03/30 06:55:48;;;;;;;49.22;15.63;;;;;;;4.65;88.73;100859.25;5094964;28;20052;-77
2022/03/30 06:58:16;;;;;;;43.63;13.98;;;;;;;4.69;89.08;100850.75;5095068;28;20046;-78
2022/03/30 07:00:44;;;;;;;44.20;16.50;;;;;;;4.71;88.78;100858.59;5094639;28;20040;-75
2022/03/30 07:03:13;;;;;;;42.88;16.20;;;;;;;4.86;88.67;100848.75;5094836;28;20060;-73
2022/03/30 07:05:41;;;;;;;39.53;15.02;;;;;;;5.08;88.10;100850.41;5095013;28;20080;-74
2022/03/30 07:10:56;;;;;;;40.83;15.32;;;;;;;5.54;87.64;100852.84;5094741;28;20044;-73
2022/03/30 07:13:24;;;;;;;42.50;16.58;;;;;;;5.72;86.69;100848.25;5094917;28;20117;-74
2022/03/30 07:15:51;;;;;;;43.88;17.75;;;;;;;5.89;85.52;100841.03;5094972;28;20044;-73
2022/03/30 07:18:21;;;;;;;41.38;14.52;;;;;;;6.03;84.71;100841.47;5094918;28;20050;-74
2022/03/30 07:20:49;;;;;;;39.75;16.13;;;;;;;6.26;84.43;100843.03;5094534;28;20040;-73
2022/03/30 07:23:18;;;;;;;40.47;15.90;;;;;;;6.36;83.67;100836.38;5094467;28;20059;-75
2022/03/30 07:25:46;;;;;;;40.13;17.40;;;;;;;6.59;82.85;100837.06;5094349;28;20051;-74
2022/03/30 07:28:16;;;;;;;42.85;16.35;;;;;;;6.68;81.95;100834.72;5094521;28;20449;-73
2022/03/30 07:30:45;;;;;;;38.30;15.70;;;;;;;6.77;81.40;100841.09;5094271;28;20453;-74
2022/03/30 07:33:13;;;;;;;43.78;16.63;;;;;;;7.00;81.77;100833.91;5076267;28;20048;-73
2022/03/30 07:35:46;;;;;;;40.95;15.85;;;;;;;7.22;81.17;100838.00;5094649;28;20052;-73
2022/03/30 07:38:17;;;;;;;42.40;15.82;;;;;;;7.24;80.17;100836.31;5094326;28;20048;-74
2022/03/30 07:40:47;;;;;;;41.75;16.83;;;;;;;7.47;81.03;100829.94;5094433;28;20081;-75
2022/03/30 07:43:16;;;;;;;45.53;18.83;;;;;;;7.61;79.28;100832.00;5094357;28;20043;-73
2022/03/30 07:45:45;;;;;;;41.85;16.15;;;;;;;7.79;79.26;100828.13;5094029;28;20089;-73
2022/03/30 07:48:13;;;;;;;49.00;16.58;;;;;;;8.03;78.13;100827.81;5093947;28;20083;-73
2022/03/30 07:50:43;;;;;;;34.97;14.88;;;;;;;8.10;77.84;100829.72;5094361;28;20468;-74
2022/03/30 07:53:11;;;;;;;41.60;16.17;;;;;;;8.08;77.06;100825.31;5093910;28;20090;-74
2022/03/30 07:55:39;;;;;;;39.38;15.48;;;;;;;8.25;76.43;100817.88;5094273;28;20048;-74
2022/03/30 07:58:07;;;;;;;42.38;16.45;;;;;;;8.36;76.12;100817.25;5093815;28;20040;-74
2022/03/30 08:00:35;;;;;;;42.95;16.70;;;;;;;8.29;75.99;100819.69;5093711;28;20449;-73
2022/03/30 08:03:03;;;;;;;39.65;15.68;;;;;;;8.39;75.32;100814.72;5092945;28;20455;-74
2022/03/30 08:05:33;;;;;;;37.10;16.13;;;;;;;8.53;74.50;100813.28;5093520;28;20071;-74
2022/03/30 08:08:02;;;;;;;33.95;14.93;;;;;;;8.55;75.24;100812.41;5093755;28;20093;-73
2022/03/30 08:10:30;;;;;;;37.85;16.73;;;;;;;8.66;75.01;100814.41;5093945;28;20128;-74
2022/03/30 08:12:58;;;;;;;44.40;14.57;;;;;;;8.73;74.29;100810.19;5093908;28;20055;-73
2022/03/30 08:15:27;;;;;;;40.47;14.93;;;;;;;8.95;74.25;100816.72;5094008;28;20099;-74
2022/03/30 08:17:56;;;;;;;33.08;12.98;;;;;;;9.14;73.92;100811.00;5093958;28;20134;-76
2022/03/30 08:23:13;;;;;;;33.50;13.13;;;;;;;9.41;72.76;100811.44;5093693;28;20072;-77
2022/03/30 08:25:43;;;;;;;34.95;14.18;;;;;;;9.31;72.59;100809.56;5093166;28;20047;-73
2022/03/30 08:28:11;;;;;;;29.85;11.40;;;;;;;9.19;73.37;100814.56;5093468;28;20432;-74
2022/03/30 08:30:39;;;;;;;30.73;11.80;;;;;;;9.22;73.28;100817.25;5093250;28;20092;-73
2022/03/30 08:33:08;;;;;;;25.25;10.98;;;;;;;9.11;73.91;100810.94;5093395;28;20145;-73
2022/03/30 08:35:37;;;;;;;26.20;11.75;;;;;;;9.14;74.48;100813.59;5093131;28;20456;-73
2022/03/30 08:38:06;;;;;;;20.90;9.82;;;;;;;9.27;73.67;100814.72;5093089;28;20555;-78
2022/03/30 08:40:36;;;;;;;27.33;11.30;;;;;;;9.14;73.81;100811.00;5093341;28;20153;-75
2022/03/30 08:43:04;;;;;;;28.95;11.10;;;;;;;9.32;73.60;100810.44;5093283;28;20115;-75
2022/03/30 08:45:33;;;;;;;26.52;12.00;;;;;;;9.03;73.94;100815.13;5093269;28;20048;-75
2022/03/30 08:48:01;;;;;;;24.70;10.93;;;;;;;8.97;73.63;100808.06;5093032;28;20052;-74
2022/03/30 08:50:29;;;;;;;30.88;10.90;;;;;;;8.98;73.37;100808.94;5093437;28;20135;-77
2022/03/30 08:53:02;;;;;;;26.83;11.57;;;;;;;8.80;73.80;100804.22;5093077;28;20048;-77
2022/03/30 08:55:31;;;;;;;21.67;9.65;;;;;;;9.25;72.79;100798.09;5092884;28;20082;-77
2022/03/30 08:58:01;;;;;;;24.33;9.52;;;;;;;9.45;71.94;100789.72;5093193;28;20051;-75
2022/03/30 09:00:32;;;;;;;30.15;12.32;;;;;;;9.87;69.84;100791.25;5093041;28;20060;-75
2022/03/30 09:03:00;;;;;;;23.75;10.15;;;;;;;10.24;69.16;100784.84;5092861;28;20044;-76
2022/03/30 09:05:31;;;;;;;22.52;10.13;;;;;;;10.01;68.11;100789.72;5092579;28;20048;-75
2022/03/30 09:08:09;;;;;;;24.92;10.50;;;;;;;9.94;68.36;100780.03;5092523;28;20079;-75
2022/03/30 09:10:37;;;;;;;21.70;9.38;;;;;;;10.28;67.63;100784.03;5092820;28;20047;-74
2022/03/30 09:13:07;;;;;;;24.08;10.35;;;;;;;10.62;65.85;100781.81;5092397;28;20048;-77
2022/03/30 09:15:38;;;;;;;22.23;9.55;;;;;;;10.77;65.08;100779.38;5092358;28;20093;-77
2022/03/30 09:18:07;;;;;;;24.15;8.60;;;;;;;10.93;64.55;100780.44;5092803;28;20134;-77
2022/03/30 09:20:37;;;;;;;23.42;9.70;;;;;;;10.55;65.38;100782.59;5092165;28;20051;-76
2022/03/30 09:23:07;;;;;;;22.05;9.57;;;;;;;10.30;66.02;100786.69;5092634;28;20048;-75
2022/03/30 09:25:46;;;;;;;21.65;9.20;;;;;;;9.95;66.03;100794.00;5092110;28;20063;-75
2022/03/30 09:28:18;;;;;;;21.23;9.40;;;;;;;10.10;66.47;100782.00;5092812;28;20048;-76
2022/03/30 09:30:46;;;;;;;19.20;9.60;;;;;;;10.17;66.47;100777.72;5092441;28;20093;-75
2022/03/30 09:33:18;;;;;;;20.48;9.85;;;;;;;10.42;65.13;100778.94;5092639;28;20403;-75
2022/03/30 09:35:46;;;;;;;18.58;9.13;;;;;;;10.17;64.75;100780.34;5092615;28;20135;-77
2022/03/30 09:38:17;;;;;;;21.67;8.88;;;;;;;9.97;64.50;100774.81;5092877;28;20062;-77
2022/03/30 09:40:47;;;;;;;21.40;8.85;;;;;;;10.21;64.27;100770.81;5092452;28;20071;-77
2022/03/30 09:43:19;;;;;;;25.42;10.88;;;;;;;10.28;63.01;100770.03;5092715;28;20062;-74
2022/03/30 09:45:50;;;;;;;24.88;10.38;;;;;;;10.51;63.08;100765.94;5092469;28;20047;-74
2022/03/30 09:48:24;;;;;;;23.75;9.55;;;;;;;10.21;63.36;100773.44;5093045;28;20044;-77
2022/03/30 09:50:52;;;;;;;;;;;;;;;10.13;63.47;100768.94;5093729;28;20047;-77
2022/03/30 09:53:23;;;;;;;27.70;11.20;;;;;;;10.14;64.04;100764.59;5092843;28;20017;-75
2022/03/30 09:55:53;;;;;;;26.85;11.00;;;;;;;10.67;63.62;100762.66;5092473;28;20122;-75
2022/03/30 09:58:23;;;;;;;25.42;11.60;;;;;;;10.86;62.44;100757.59;5092470;28;20056;-77
2022/03/30 10:01:12;;;;;;;25.88;10.60;;;;;;;10.76;61.59;100764.50;5093116;28;20104;-77
2022/03/30 10:03:43;;;;;;;26.25;11.15;;;;;;;10.89;61.33;100760.25;5093204;28;20398;-76
2022/03/30 10:06:15;;;;;;;25.48;11.20;;;;;;;11.22;61.13;100747.47;5092832;28;20131;-75
2022/03/30 10:08:44;;;;;;;26.00;10.95;;;;;;;10.73;61.46;100756.59;5092729;28;20169;-72
2022/03/30 10:11:16;;;;;;;25.33;10.27;;;;;;;10.55;62.10;100754.63;5092456;28;20086;-73
2022/03/30 10:13:47;;;;;;;27.25;11.40;;;;;;;10.81;62.20;100755.81;5092226;28;20044;-74
2022/03/30 10:16:35;;;;;;;25.52;10.75;;;;;;;11.07;61.20;100735.09;5092624;28;20380;-74
2022/03/30 10:19:04;;;;;;;26.40;11.70;;;;;;;11.05;61.08;100749.06;5092392;28;20044;-73
2022/03/30 10:21:44;;;;;;;24.40;11.18;;;;;;;11.45;60.83;100751.16;5074631;28;20044;-74
2022/03/30 10:24:28;;;;;;;29.05;11.30;;;;;;;11.80;59.65;100742.69;5092537;28;20044;-74
2022/03/30 10:27:03;;;;;;;28.13;11.35;;;;;;;12.20;58.25;100746.44;5096486;28;20051;-78
2022/03/30 10:29:33;;;;;;;27.60;11.10;;;;;;;12.21;57.99;100739.44;5098257;28;20051;-78
2022/03/30 10:32:13;;;;;;;30.98;12.85;;;;;;;11.97;57.55;100741.06;5097989;28;20040;-78
2022/03/30 10:34:51;;;;;;;25.38;10.80;;;;;;;11.95;57.96;100737.53;5096565;28;20062;-73
2022/03/30 10:37:27;;;;;;;30.02;11.75;;;;;;;11.25;58.78;100749.25;5096191;28;20101;-74
2022/03/30 10:39:57;;;;;;;22.83;9.95;;;;;;;11.29;58.88;100741.41;5095807;28;20386;-73
2022/03/30 10:42:25;;;;;;;22.52;9.65;;;;;;;11.39;59.05;100738.00;5095637;28;20079;-73
2022/03/30 10:44:58;;;;;;;23.52;10.20;;;;;;;11.10;58.00;100734.25;5078779;28;20044;-79
2022/03/30 10:47:29;;;;;;;22.45;9.63;;;;;;;11.17;57.90;100736.06;5097180;28;20101;-78
2022/03/30 10:50:00;;;;;;;24.98;9.52;;;;;;;11.46;57.58;100742.41;5096723;28;20040;-77
2022/03/30 10:52:35;;;;;;;21.10;9.77;;;;;;;12.09;56.62;100734.97;5096447;28;20164;-77
2022/03/30 10:55:38;;;;;;;23.98;10.30;;;;;;;12.21;55.35;100734.16;5096632;28;20097;-78
2022/03/30 10:58:15;;;;;;;23.55;9.75;;;;;;;12.11;54.67;100730.63;5096063;28;20066;-78
2022/03/30 11:00:44;;;;;;;21.52;10.35;;;;;;;12.30;54.62;100723.69;5096149;28;20052;-78
2022/03/30 11:03:16;;;;;;;20.38;9.13;;;;;;;12.16;54.55;100725.38;5095502;28;20052;-74
2022/03/30 11:05:47;;;;;;;22.33;10.48;;;;;;;11.95;55.38;100724.41;5094929;28;20097;-75
2022/03/30 11:08:55;;;;;;;24.55;9.52;;;;;;;12.07;54.46;100716.56;5095184;28;20059;-73
2022/03/30 11:11:25;;;;;;;24.50;10.43;;;;;;;12.00;54.94;100709.53;5095107;28;20081;-75
2022/03/30 11:14:24;;;;;;;24.88;10.45;;;;;;;11.98;55.23;100700.75;5095083;28;20126;-74
2022/03/30 11:16:55;;;;;;;22.83;10.05;;;;;;;12.47;55.53;100694.84;5094766;28;20536;-75
2022/03/30 11:19:29;;;;;;;27.15;10.68;;;;;;;12.48;53.73;100686.06;5095065;28;20044;-74
2022/03/30 11:22:09;;;;;;;20.67;9.82;;;;;;;12.59;54.14;100679.94;5094615;28;20461;-74
2022/03/30 11:24:39;;;;;;;22.25;9.52;;;;;;;12.58;53.25;100678.16;5095080;28;20075;-74
2022/03/30 11:27:21;;;;;;;24.90;10.50;;;;;;;12.50;53.22;100669.38;5094793;28;20143;-75
2022/03/30 11:30:16;;;;;;;21.77;9.68;;;;;;;12.69;53.51;100665.03;5076793;28;20181;-79
2022/03/30 11:33:01;;;;;;;20.60;9.68;;;;;;;12.89;52.31;100663.31;5095474;28;20441;-77
2022/03/30 11:35:36;;;;;;;23.63;10.57;;;;;;;12.70;52.75;100658.91;5094959;28;20119;-77
2022/03/30 11:38:07;;;;;;;24.08;10.23;;;;;;;12.86;51.31;100657.19;5094084;28;20444;-77
2022/03/30 11:40:37;;;;;;;20.35;9.45;;;;;;;12.36;52.96;100661.50;5094847;28;20094;-77